Time;durP1;ratioP1;P1;durP2;ratioP2;P2;SDS_P1;SDS_P2;PMS_P1;PMS_P2;Temp;Humidity;BMP_temperature;BMP_pressure;BME280_temperature;BME280_humidity;BME280_pressure;Samples;Min_cycle;Max_cycle;Signal;HPM_P1;HPM_P2
2021/04/02 00:01:59;;;;;;;28.50;19.40;;;14.10;54.30;;;;;;5055389;28;20964;-85
2021/04/02 00:04:26;;;;;;;30.07;18.87;;;14.10;54.40;;;;;;5067391;28;20618;-85
2021/04/02 00:06:52;;;;;;;28.10;20.27;;;14.00;54.60;;;;;;5069675;28;20785;-85
2021/04/02 00:09:18;;;;;;;29.77;20.17;;;13.90;54.70;;;;;;5067323;28;20644;-86
2021/04/02 00:11:45;;;;;;;28.53;18.90;;;14.10;55.40;;;;;;5069781;28;20653;-85
2021/04/02 00:14:12;;;;;;;30.30;19.93;;;14.20;54.70;;;;;;5064315;28;20688;-85
2021/04/02 00:16:38;;;;;;;32.83;20.00;;;14.20;54.50;;;;;;5050483;28;20680;-85
2021/04/02 00:19:05;;;;;;;35.20;20.60;;;14.20;54.40;;;;;;5064304;28;20629;-85
2021/04/02 00:21:32;;;;;;;28.80;21.00;;;13.90;54.90;;;;;;5058526;28;20667;-84
2021/04/02 00:23:58;;;;;;;29.30;19.73;;;13.90;55.00;;;;;;5067899;28;20929;-85
2021/04/02 00:26:25;;;;;;;35.80;20.80;;;13.90;55.10;;;;;;5049743;28;20623;-84
2021/04/02 00:28:52;;;;;;;32.67;21.50;;;14.00;55.10;;;;;;5067547;28;20633;-85
2021/04/02 00:31:19;;;;;;;32.07;20.73;;;13.90;55.20;;;;;;5062949;28;21485;-85
2021/04/02 00:33:45;;;;;;;29.57;20.40;;;13.80;55.30;;;;;;5068621;28;20617;-85
2021/04/02 00:36:13;;;;;;;29.73;22.03;;;13.90;55.50;;;;;;5068028;28;20628;-86
2021/04/02 00:38:40;;;;;;;37.90;22.20;;;13.90;55.10;;;;;;5068988;28;20614;-85
2021/04/02 00:41:08;;;;;;;33.23;23.90;;;13.80;55.60;;;;;;5068027;28;20659;-85
2021/04/02 00:43:37;;;;;;;36.63;23.67;;;13.80;55.30;;;;;;5068997;28;20621;-85
2021/04/02 00:46:04;;;;;;;33.73;22.67;;;13.50;55.60;;;;;;5066845;28;20621;-85
2021/04/02 00:48:31;;;;;;;39.30;22.80;;;13.40;55.80;;;;;;5063991;28;20613;-85
2021/04/02 00:50:59;;;;;;;35.23;23.03;;;13.50;56.40;;;;;;5065417;28;20669;-84
2021/04/02 00:53:30;;;;;;;34.97;23.23;;;13.50;56.00;;;;;;5052131;28;21073;-85
2021/04/02 00:55:58;;;;;;;35.10;24.47;;;13.50;56.00;;;;;;5059489;28;20610;-85
2021/04/02 00:58:27;;;;;;;37.37;22.63;;;13.50;55.80;;;;;;5049193;28;20654;-85
2021/04/02 01:00:54;;;;;;;34.23;23.30;;;13.50;55.60;;;;;;5070458;28;20645;-85
2021/04/02 01:03:23;;;;;;;34.63;24.87;;;13.50;55.90;;;;;;5055211;28;20630;-85
2021/04/02 01:05:55;;;;;;;32.27;23.40;;;13.40;55.70;;;;;;5063444;28;20622;-85
2021/04/02 01:08:26;;;;;;;41.40;23.70;;;13.40;55.90;;;;;;5067176;28;20625;-85
2021/04/02 01:10:56;;;;;;;35.53;23.77;;;13.30;56.40;;;;;;5066399;28;21063;-84
2021/04/02 01:13:27;;;;;;;41.27;23.50;;;13.30;56.40;;;;;;5067320;28;20657;-84
2021/04/02 01:15:58;;;;;;;34.13;23.80;;;13.20;56.70;;;;;;5075970;28;21530;-84
2021/04/02 01:18:30;;;;;;;38.77;23.27;;;13.30;56.60;;;;;;5060151;28;20659;-84
2021/04/02 01:21:01;;;;;;;31.90;22.13;;;13.10;56.70;;;;;;5064449;28;20637;-85
2021/04/02 01:23:33;;;;;;;41.37;23.43;;;13.20;56.60;;;;;;5087200;28;21440;-85
2021/04/02 01:26:13;;;;;;;34.23;23.50;;;13.10;56.90;;;;;;5068311;28;20621;-85
2021/04/02 01:28:54;;;;;;;31.13;20.40;;;13.10;57.20;;;;;;5069101;28;20667;-84
2021/04/02 01:31:23;;;;;;;27.90;20.77;;;12.90;57.10;;;;;;5078535;28;20667;-84
2021/04/02 01:33:54;;;;;;;25.53;19.43;;;12.90;57.00;;;;;;5065702;28;20725;-84
2021/04/02 01:36:22;;;;;;;27.13;18.60;;;12.90;56.90;;;;;;5049574;28;20626;-84
2021/04/02 01:38:51;;;;;;;28.40;19.43;;;13.00;56.60;;;;;;5048336;28;20729;-85
2021/04/02 01:41:22;;;;;;;30.83;19.40;;;12.90;56.20;;;;;;5062804;28;20626;-85
2021/04/02 01:43:54;;;;;;;28.60;18.70;;;12.90;56.90;;;;;;5065967;28;20728;-83
2021/04/02 01:46:22;;;;;;;26.33;17.83;;;12.50;56.80;;;;;;5048479;28;21634;-84
2021/04/02 01:48:55;;;;;;;32.63;17.97;;;12.60;57.30;;;;;;5074085;28;20618;-84
2021/04/02 01:51:25;;;;;;;28.50;18.03;;;12.30;57.50;;;;;;5068096;28;20731;-84
2021/04/02 01:53:56;;;;;;;22.03;16.83;;;12.30;58.50;;;;;;5050220;28;20619;-84
2021/04/02 01:56:25;;;;;;;29.87;17.50;;;12.40;57.80;;;;;;5048263;28;20634;-84
2021/04/02 01:58:56;;;;;;;25.97;18.07;;;12.50;57.30;;;;;;5055283;28;20981;-84
2021/04/02 02:01:33;;;;;;;23.57;17.30;;;12.40;57.50;;;;;;5048419;28;20718;-85
2021/04/02 02:04:03;;;;;;;26.37;16.90;;;12.40;57.80;;;;;;5054414;28;21089;-85
2021/04/02 02:06:32;;;;;;;22.43;16.73;;;12.40;57.90;;;;;;5067971;28;20633;-84
2021/04/02 02:09:00;;;;;;;23.30;16.50;;;12.40;57.80;;;;;;5061935;28;20635;-85
2021/04/02 02:11:29;;;;;;;22.97;16.00;;;12.30;57.80;;;;;;5047895;28;20668;-84
2021/04/02 02:14:07;;;;;;;25.50;16.13;;;12.10;58.20;;;;;;5059425;28;20626;-84
2021/04/02 02:16:34;;;;;;;18.70;15.37;;;12.20;58.00;;;;;;5047676;28;20664;-84
2021/04/02 02:19:01;;;;;;;24.40;16.37;;;12.30;57.80;;;;;;5066459;28;20625;-84
2021/04/02 02:21:29;;;;;;;23.40;15.50;;;12.20;57.70;;;;;;5069715;28;20621;-84
2021/04/02 02:23:57;;;;;;;22.70;14.83;;;12.00;58.10;;;;;;5054746;28;21021;-85
2021/04/02 02:26:23;;;;;;;21.13;15.83;;;11.90;58.30;;;;;;5051643;28;20629;-84
2021/04/02 02:28:50;;;;;;;20.80;14.00;;;11.90;58.30;;;;;;5070208;28;20594;-84
2021/04/02 02:31:17;;;;;;;17.50;12.87;;;11.80;58.30;;;;;;5053843;28;20625;-84
2021/04/02 02:33:44;;;;;;;20.47;13.20;;;11.80;58.50;;;;;;5047043;28;20662;-84
2021/04/02 02:36:11;;;;;;;17.60;14.00;;;11.90;58.20;;;;;;5066911;28;21197;-84
2021/04/02 02:38:38;;;;;;;18.13;12.10;;;11.80;58.20;;;;;;5056686;28;20618;-84
2021/04/02 02:41:05;;;;;;;19.40;11.57;;;11.60;59.00;;;;;;5047358;28;20638;-85
2021/04/02 02:43:32;;;;;;;16.85;12.27;;;11.50;58.90;;;;;;5048187;28;20982;-84
2021/04/02 02:45:58;;;;;;;23.40;11.83;;;11.60;58.80;;;;;;5067809;28;20226;-84
2021/04/02 02:48:26;;;;;;;22.40;12.70;;;11.60;59.10;;;;;;5065409;28;20609;-84
2021/04/02 02:50:54;;;;;;;21.40;14.40;;;11.60;58.80;;;;;;5066590;28;20650;-84
2021/04/02 02:53:25;;;;;;;19.67;13.20;;;11.20;59.00;;;;;;5061449;28;20657;-85
2021/04/02 02:55:53;;;;;;;19.50;12.80;;;11.30;59.60;;;;;;5047636;28;20606;-84
2021/04/02 02:58:23;;;;;;;15.73;12.40;;;11.30;59.50;;;;;;5048261;28;20192;-84
2021/04/02 03:00:51;;;;;;;18.70;13.17;;;11.40;59.60;;;;;;5063479;28;20199;-84
2021/04/02 03:03:20;;;;;;;19.23;11.77;;;11.30;59.50;;;;;;5065202;28;20935;-84
2021/04/02 03:05:50;;;;;;;13.70;10.55;;;11.30;59.50;;;;;;5051232;28;20555;-85
2021/04/02 03:08:20;;;;;;;16.73;11.55;;;11.40;59.40;;;;;;5050683;28;20196;-84
2021/04/02 03:10:47;;;;;;;15.00;11.85;;;11.40;59.30;;;;;;5067030;28;20195;-84
2021/04/02 03:13:17;;;;;;;14.17;10.40;;;11.30;59.40;;;;;;5070789;28;20250;-84
2021/04/02 03:15:45;;;;;;;14.50;10.82;;;11.40;59.50;;;;;;5069358;28;21224;-84
2021/04/02 03:18:14;;;;;;;14.75;11.20;;;11.50;59.20;;;;;;5069567;28;20672;-84
2021/04/02 03:20:42;;;;;;;13.70;9.93;;;11.40;59.30;;;;;;5063647;28;20210;-84
2021/04/02 03:23:13;;;;;;;11.77;9.65;;;11.50;58.90;;;;;;5059667;28;20204;-84
2021/04/02 03:25:42;;;;;;;14.45;10.45;;;11.40;58.90;;;;;;5067568;28;20199;-84
2021/04/02 03:28:11;;;;;;;13.52;11.30;;;11.10;59.30;;;;;;5071141;28;20195;-84
2021/04/02 03:30:38;;;;;;;16.42;12.00;;;11.00;60.20;;;;;;5068086;28;20609;-84
2021/04/02 03:33:09;;;;;;;15.10;10.93;;;10.50;61.40;;;;;;5069640;28;20238;-84
2021/04/02 03:35:36;;;;;;;12.25;10.82;;;10.30;62.70;;;;;;5056263;28;20199;-84
2021/04/02 03:38:04;;;;;;;13.88;9.90;;;10.40;62.30;;;;;;5050263;28;20513;-84
2021/04/02 03:40:32;;;;;;;13.50;9.55;;;10.30;62.60;;;;;;5052347;28;21041;-85
2021/04/02 03:43:00;;;;;;;13.02;9.85;;;10.30;61.80;;;;;;5050075;28;20678;-84
2021/04/02 03:45:29;;;;;;;15.13;9.98;;;10.20;61.90;;;;;;5051486;28;20622;-83
2021/04/02 03:47:57;;;;;;;11.35;8.35;;;10.30;61.30;;;;;;5062267;28;20669;-83
2021/04/02 03:50:29;;;;;;;13.32;9.25;;;10.20;61.40;;;;;;5056527;28;20200;-83
2021/04/02 03:53:08;;;;;;;14.48;8.98;;;10.10;61.00;;;;;;5061706;28;20229;-84
2021/04/02 03:55:39;;;;;;;14.98;9.65;;;10.20;61.60;;;;;;5056111;28;20196;-83
2021/04/02 03:58:07;;;;;;;13.55;9.73;;;9.80;63.40;;;;;;5057227;28;20187;-84
2021/04/02 04:00:39;;;;;;;13.45;9.35;;;9.60;64.00;;;;;;5054626;28;20204;-84
2021/04/02 04:03:06;;;;;;;12.23;8.60;;;9.50;64.60;;;;;;5063386;28;20203;-84
2021/04/02 04:05:34;;;;;;;10.98;7.93;;;9.40;62.70;;;;;;5061310;28;20192;-84
2021/04/02 04:08:02;;;;;;;8.82;7.35;;;9.40;62.50;;;;;;5050602;28;20230;-83
2021/04/02 04:10:29;;;;;;;12.90;7.45;;;9.30;62.30;;;;;;5062277;28;20196;-83
2021/04/02 04:12:59;;;;;;;14.73;9.15;;;9.30;61.70;;;;;;5069861;28;20230;-84
2021/04/02 04:15:27;;;;;;;10.35;7.22;;;9.30;61.30;;;;;;5051915;28;20253;-83
2021/04/02 04:17:54;;;;;;;9.88;6.78;;;9.10;61.00;;;;;;5050138;28;20200;-84
2021/04/02 04:20:22;;;;;;;13.05;7.10;;;8.80;61.10;;;;;;5056326;28;20304;-84
2021/04/02 04:22:50;;;;;;;9.35;7.07;;;8.80;62.40;;;;;;5067600;28;20296;-83
2021/04/02 04:25:23;;;;;;;9.40;6.25;;;8.70;61.20;;;;;;5067777;28;20315;-84
2021/04/02 04:27:50;;;;;;;10.38;6.32;;;8.50;61.00;;;;;;5057990;28;20199;-83
2021/04/02 04:30:19;;;;;;;6.80;5.38;;;8.40;60.90;;;;;;5066721;28;20574;-83
2021/04/02 04:32:46;;;;;;;5.40;4.35;;;8.40;60.50;;;;;;5058621;28;20212;-84
2021/04/02 04:35:16;;;;;;;9.95;6.95;;;8.60;60.10;;;;;;5058548;28;20691;-84
2021/04/02 04:37:44;;;;;;;8.57;5.15;;;8.70;59.10;;;;;;5053288;28;20239;-84
2021/04/02 04:40:14;;;;;;;7.00;4.07;;;8.60;58.90;;;;;;5063979;28;20580;-84
2021/04/02 04:42:44;;;;;;;5.03;4.47;;;8.40;58.20;;;;;;5069076;28;20224;-84
2021/04/02 04:45:13;;;;;;;5.85;4.15;;;8.40;57.90;;;;;;5059297;28;20294;-83
2021/04/02 04:47:41;;;;;;;5.05;3.53;;;8.00;57.50;;;;;;5058834;28;20210;-84
2021/04/02 04:50:09;;;;;;;5.72;4.05;;;8.00;58.10;;;;;;5060466;28;20297;-83
2021/04/02 04:52:40;;;;;;;5.47;3.55;;;7.90;57.70;;;;;;5054769;28;20223;-83
2021/04/02 04:55:10;;;;;;;4.97;3.85;;;8.10;57.50;;;;;;5055961;28;20510;-83
2021/04/02 04:57:39;;;;;;;5.50;3.92;;;8.20;57.20;;;;;;5050770;28;20231;-84
2021/04/02 05:00:08;;;;;;;3.97;3.17;;;8.20;56.70;;;;;;5055235;28;20195;-84
2021/04/02 05:02:35;;;;;;;4.55;2.75;;;8.40;56.70;;;;;;5064531;28;20196;-83
2021/04/02 05:05:05;;;;;;;3.83;3.47;;;8.40;56.20;;;;;;5058095;28;20230;-83
2021/04/02 05:07:33;;;;;;;6.28;3.20;;;8.50;56.30;;;;;;5050774;28;20236;-84
2021/04/02 05:10:00;;;;;;;3.55;3.13;;;8.60;56.30;;;;;;5057659;28;20195;-84
2021/04/02 05:12:29;;;;;;;4.07;3.40;;;8.80;55.70;;;;;;5048603;28;20239;-84
2021/04/02 05:14:58;;;;;;;5.97;4.03;;;9.00;55.50;;;;;;5060385;28;20202;-83
2021/04/02 05:17:25;;;;;;;4.30;2.85;;;9.10;55.40;;;;;;5053618;28;20196;-84
2021/04/02 05:19:52;;;;;;;3.40;3.03;;;9.00;55.00;;;;;;5058140;28;20199;-84
2021/04/02 05:22:19;;;;;;;5.15;2.72;;;9.00;55.00;;;;;;5071897;28;20191;-83
2021/04/02 05:24:46;;;;;;;5.65;3.10;;;8.90;55.00;;;;;;5060949;28;20200;-83
2021/04/02 05:27:12;;;;;;;4.85;2.85;;;8.90;55.30;;;;;;5054431;28;20184;-84
2021/04/02 05:29:38;;;;;;;2.90;2.45;;;8.90;55.20;;;;;;5058466;28;20188;-83
2021/04/02 05:32:06;;;;;;;3.80;2.70;;;8.90;55.10;;;;;;5052803;28;20219;-83
2021/04/02 05:34:32;;;;;;;2.97;2.63;;;8.70;54.90;;;;;;5055691;28;20196;-83
2021/04/02 05:36:59;;;;;;;3.90;3.53;;;8.70;54.90;;;;;;5060898;28;20231;-84
2021/04/02 05:39:26;;;;;;;3.63;3.28;;;8.70;55.00;;;;;;5060983;28;20196;-84
2021/04/02 05:41:56;;;;;;;5.10;3.40;;;8.60;55.00;;;;;;5048320;28;20211;-84
2021/04/02 05:44:27;;;;;;;8.27;4.05;;;8.80;55.20;;;;;;5058516;28;20567;-84
2021/04/02 05:46:54;;;;;;;3.88;3.15;;;8.90;54.90;;;;;;5048838;28;20200;-84
2021/04/02 05:49:22;;;;;;;4.20;3.35;;;9.00;55.10;;;;;;5052089;28;20187;-84
2021/04/02 05:51:49;;;;;;;3.00;2.70;;;8.60;54.60;;;;;;5064940;28;20227;-84
2021/04/02 05:54:23;;;;;;;2.55;2.35;;;8.50;55.10;;;;;;5053824;28;20199;-84
2021/04/02 05:56:51;;;;;;;3.08;2.75;;;8.20;55.50;;;;;;5065729;28;20203;-84
2021/04/02 05:59:20;;;;;;;3.42;2.50;;;8.00;55.90;;;;;;5064137;28;20215;-83
2021/04/02 06:01:47;;;;;;;3.05;2.75;;;7.90;56.20;;;;;;5067020;28;20203;-85
2021/04/02 06:04:14;;;;;;;3.30;3.00;;;7.90;56.10;;;;;;5059490;28;20563;-84
2021/04/02 06:06:41;;;;;;;2.80;2.60;;;8.10;56.30;;;;;;5048392;28;20206;-84
2021/04/02 06:09:08;;;;;;;3.75;3.42;;;8.20;55.90;;;;;;5053595;28;20195;-83
2021/04/02 06:11:36;;;;;;;4.57;2.97;;;8.00;56.00;;;;;;5051163;28;20196;-84
2021/04/02 06:14:03;;;;;;;3.63;3.25;;;8.20;56.50;;;;;;5048865;28;20216;-84
2021/04/02 06:16:30;;;;;;;5.78;4.45;;;8.50;56.00;;;;;;5048034;28;20200;-83
2021/04/02 06:18:57;;;;;;;8.15;5.85;;;8.60;55.50;;;;;;5053959;28;20194;-85
2021/04/02 06:21:25;;;;;;;4.63;3.28;;;8.80;55.60;;;;;;5077011;28;20207;-83
2021/04/02 06:23:52;;;;;;;4.47;3.42;;;8.90;55.50;;;;;;5058883;28;20202;-82
2021/04/02 06:26:18;;;;;;;6.53;4.05;;;9.10;55.30;;;;;;5056531;28;20619;-83
2021/04/02 06:28:45;;;;;;;3.92;3.45;;;9.30;55.10;;;;;;5064875;28;20188;-82
2021/04/02 06:31:13;;;;;;;6.43;3.40;;;9.20;54.70;;;;;;5064353;28;20210;-81
2021/04/02 06:33:41;;;;;;;6.00;4.00;;;9.00;54.90;;;;;;5064540;28;20242;-82
2021/04/02 06:36:13;;;;;;;5.65;3.70;;;9.20;55.40;;;;;;5047108;28;20208;-82
2021/04/02 06:38:44;;;;;;;3.75;3.40;;;9.30;55.30;;;;;;5053860;28;20187;-82
2021/04/02 06:41:12;;;;;;;5.25;4.25;;;9.10;55.30;;;;;;5071127;28;20218;-82
2021/04/02 06:43:43;;;;;;;4.90;4.38;;;9.00;55.40;;;;;;5059909;28;20191;-82
2021/04/02 06:46:12;;;;;;;5.82;3.70;;;9.10;55.90;;;;;;5074596;28;20218;-82
2021/04/02 06:48:39;;;;;;;4.75;4.35;;;9.20;55.50;;;;;;5076639;28;20692;-82
2021/04/02 06:51:12;;;;;;;4.35;3.95;;;9.10;55.30;;;;;;5066126;28;20712;-82
2021/04/02 06:53:40;;;;;;;6.45;4.20;;;9.20;55.50;;;;;;5071060;28;20222;-82
2021/04/02 06:56:10;;;;;;;6.68;4.63;;;9.40;55.80;;;;;;5074600;28;20191;-83
2021/04/02 07:02:07;;;;;;;6.20;4.85;;;9.10;55.30;;;;;;5076822;28;20215;-86
2021/04/02 07:04:34;;;;;;;6.57;5.05;;;8.90;55.80;;;;;;5074394;28;20696;-87
2021/04/02 07:07:03;;;;;;;7.32;4.40;;;8.80;56.10;;;;;;5069718;28;20211;-86
2021/04/02 07:09:36;;;;;;;10.95;4.78;;;8.80;56.50;;;;;;5065774;28;20195;-86
2021/04/02 07:12:04;;;;;;;4.70;4.15;;;8.80;56.40;;;;;;5061901;28;20207;-85
2021/04/02 07:14:32;;;;;;;5.72;4.78;;;8.60;56.60;;;;;;5058867;28;20196;-85
2021/04/02 07:16:58;;;;;;;4.95;4.07;;;8.60;56.80;;;;;;5051731;28;20843;-86
2021/04/02 07:19:27;;;;;;;6.75;4.50;;;8.40;56.80;;;;;;5060945;28;20188;-85
2021/04/02 07:21:55;;;;;;;7.50;4.82;;;8.60;57.00;;;;;;5068069;28;20244;-86
2021/04/02 07:24:22;;;;;;;8.15;4.75;;;8.80;56.90;;;;;;5060315;28;20272;-85
2021/04/02 07:26:50;;;;;;;6.82;5.50;;;8.90;56.70;;;;;;5067570;28;20676;-85
2021/04/02 07:29:19;;;;;;;5.55;5.00;;;8.70;56.40;;;;;;5070088;28;20223;-85
2021/04/02 07:31:46;;;;;;;6.90;3.97;;;8.70;56.80;;;;;;5070810;28;20249;-86
2021/04/02 07:34:15;;;;;;;10.65;4.53;;;8.70;56.60;;;;;;5074748;28;20229;-86
2021/04/02 07:36:46;;;;;;;7.80;4.93;;;8.70;56.50;;;;;;5066540;28;20296;-86
2021/04/02 07:39:12;;;;;;;7.78;4.65;;;8.50;56.90;;;;;;5046489;28;20207;-86
2021/04/02 07:41:45;;;;;;;5.20;4.70;;;8.50;57.50;;;;;;5059136;28;20200;-86
2021/04/02 07:44:14;;;;;;;6.57;5.13;;;8.60;57.10;;;;;;5052285;28;20220;-86
2021/04/02 07:47:03;;;;;;;6.70;4.78;;;8.90;57.20;;;;;;5053715;28;20195;-85
2021/04/02 07:49:30;;;;;;;7.05;5.20;;;9.20;57.10;;;;;;5050278;28;20215;-85
2021/04/02 07:51:58;;;;;;;11.45;5.60;;;9.50;56.50;;;;;;5046880;28;20203;-86
2021/04/02 07:54:31;;;;;;;8.18;6.25;;;9.60;56.10;;;;;;5056779;28;20726;-86
2021/04/02 07:56:58;;;;;;;6.85;5.40;;;9.50;55.70;;;;;;5061574;28;20228;-86
2021/04/02 07:59:46;;;;;;;8.85;6.93;;;9.40;55.80;;;;;;5059040;28;20207;-86
2021/04/02 08:02:15;;;;;;;7.93;6.75;;;9.70;56.60;;;;;;5070830;28;20211;-86
2021/04/02 08:04:44;;;;;;;7.20;5.43;;;9.90;55.40;;;;;;5067072;28;20292;-87
2021/04/02 08:07:14;;;;;;;12.35;6.35;;;9.70;54.80;;;;;;5054760;28;20196;-86
2021/04/02 08:09:42;;;;;;;9.23;6.22;;;9.60;55.60;;;;;;5061590;28;20200;-86
2021/04/02 08:12:11;;;;;;;8.02;6.75;;;9.50;55.50;;;;;;5072959;28;20572;-86
2021/04/02 08:14:38;;;;;;;8.93;6.10;;;9.80;55.90;;;;;;5085414;28;20755;-86
2021/04/02 08:17:13;;;;;;;7.00;6.28;;;10.20;55.10;;;;;;5078398;28;20618;-86
2021/04/02 08:19:41;;;;;;;9.85;7.43;;;10.40;54.00;;;;;;5080566;28;20198;-85
2021/04/02 08:22:12;;;;;;;8.90;6.68;;;10.50;54.00;;;;;;5077297;28;20602;-86
2021/04/02 08:24:42;;;;;;;10.73;6.95;;;10.70;54.30;;;;;;5079242;28;20201;-86
2021/04/02 08:27:10;;;;;;;11.20;6.70;;;10.30;53.60;;;;;;5077724;28;20194;-87
2021/04/02 08:29:39;;;;;;;8.90;6.72;;;10.30;54.00;;;;;;5078662;28;20198;-86
2021/04/02 08:34:59;;;;;;;8.93;6.75;;;10.00;54.10;;;;;;5057949;28;20211;-87
2021/04/02 08:37:29;;;;;;;7.00;6.30;;;9.90;55.20;;;;;;5061846;28;20196;-86
2021/04/02 08:40:56;;;;;;;7.20;6.50;;;10.10;54.70;;;;;;5079529;28;20201;-87
2021/04/02 08:43:40;;;;;;;9.75;7.00;;;10.80;54.80;;;;;;5060549;28;20207;-87
2021/04/02 08:46:07;;;;;;;7.45;6.75;;;10.50;54.20;;;;;;5056292;28;20661;-86
2021/04/02 08:48:35;;;;;;;9.60;6.75;;;10.50;54.80;;;;;;5049869;28;20216;-87
2021/04/02 08:51:02;;;;;;;9.40;7.35;;;10.00;53.80;;;;;;5044185;28;20234;-86
2021/04/02 08:53:40;;;;;;;11.70;7.28;;;10.40;54.90;;;;;;5048082;28;20259;-87
2021/04/02 08:56:08;;;;;;;8.65;7.00;;;10.80;54.80;;;;;;5051144;28;20881;-87
2021/04/02 08:58:41;;;;;;;9.15;7.93;;;11.10;53.50;;;;;;5054284;28;20196;-86
2021/04/02 09:01:08;;;;;;;9.98;6.97;;;10.80;53.80;;;;;;5058555;28;20282;-87
2021/04/02 09:03:35;;;;;;;9.10;7.33;;;11.20;53.70;;;;;;5052442;28;20210;-86
2021/04/02 09:06:02;;;;;;;9.95;7.15;;;11.50;54.10;;;;;;5038517;28;20681;-87
2021/04/02 09:08:29;;;;;;;8.20;7.30;;;11.80;53.30;;;;;;5047182;28;20211;-86
2021/04/02 09:10:56;;;;;;;8.80;7.90;;;12.10;53.30;;;;;;5046050;28;20686;-87
2021/04/02 09:13:35;;;;;;;8.60;7.40;;;12.20;52.60;;;;;;5056999;28;21337;-87
2021/04/02 09:16:07;;;;;;;9.32;8.35;;;12.00;51.40;;;;;;5029006;28;20752;-86
2021/04/02 09:18:46;;;;;;;10.03;8.60;;;11.70;52.20;;;;;;5028752;28;20207;-87
2021/04/02 09:21:13;;;;;;;11.00;6.90;;;11.20;52.40;;;;;;5029503;28;20619;-87
2021/04/02 09:23:40;;;;;;;12.50;9.10;;;11.50;53.30;;;;;;5028985;28;21263;-86
2021/04/02 09:26:09;;;;;;;10.00;7.73;;;12.00;53.70;;;;;;5031336;28;20635;-87
2021/04/02 09:28:37;;;;;;;11.40;8.20;;;12.00;51.90;;;;;;5049092;28;20626;-86
2021/04/02 09:31:18;;;;;;;9.90;8.70;;;12.40;52.20;;;;;;5050572;28;20192;-87
2021/04/02 09:33:48;;;;;;;11.27;9.47;;;12.80;52.00;;;;;;5039959;28;20670;-86
2021/04/02 09:36:15;;;;;;;9.00;8.10;;;13.00;51.40;;;;;;5047832;28;20603;-86
2021/04/02 09:38:42;;;;;;;11.57;8.67;;;13.20;50.80;;;;;;5052289;28;20953;-87
2021/04/02 09:41:10;;;;;;;8.20;7.30;;;13.10;50.70;;;;;;5041978;28;20773;-87
2021/04/02 09:43:42;;;;;;;12.77;8.17;;;13.10;50.70;;;;;;5046951;28;20638;-86
2021/04/02 09:46:27;;;;;;;12.57;8.03;;;13.10;50.20;;;;;;5049174;28;20622;-87
2021/04/02 09:49:07;;;;;;;10.13;7.33;;;13.10;50.30;;;;;;5028290;28;20627;-86
2021/04/02 09:51:36;;;;;;;9.73;8.60;;;12.60;50.80;;;;;;5029740;28;20668;-88
2021/04/02 09:54:09;;;;;;;10.50;8.67;;;12.60;52.00;;;;;;5039525;28;21173;-88
2021/04/02 09:56:37;;;;;;;9.50;8.00;;;13.20;52.00;;;;;;5040653;28;20733;-87
2021/04/02 09:59:05;;;;;;;9.70;7.40;;;13.40;49.70;;;;;;5044549;28;20641;-87
2021/04/02 10:01:34;;;;;;;9.60;7.93;;;13.10;49.80;;;;;;5044948;28;21043;-88
2021/04/02 10:04:03;;;;;;;10.03;7.97;;;12.80;49.30;;;;;;5050938;28;20630;-87
2021/04/02 10:06:31;;;;;;;9.93;8.60;;;12.30;50.00;;;;;;5048353;28;20717;-88
2021/04/02 10:08:59;;;;;;;9.67;8.27;;;12.00;50.90;;;;;;5040038;28;20674;-87
2021/04/02 10:11:29;;;;;;;10.57;8.77;;;11.90;51.90;;;;;;5028965;28;20619;-87
2021/04/02 10:13:58;;;;;;;11.23;7.63;;;12.30;52.20;;;;;;5035410;28;20668;-88
2021/04/02 10:16:25;;;;;;;8.93;7.00;;;12.90;52.00;;;;;;5029258;28;20624;-87
2021/04/02 10:18:56;;;;;;;11.10;8.17;;;13.50;51.00;;;;;;5029594;28;20734;-87
2021/04/02 10:21:31;;;;;;;11.87;9.20;;;13.70;49.80;;;;;;5049369;28;20619;-89
2021/04/02 10:24:00;;;;;;;9.00;8.10;;;13.70;48.70;;;;;;5057348;28;21198;-87
2021/04/02 10:26:29;;;;;;;14.00;9.00;;;13.50;49.20;;;;;;5058559;28;20622;-86
2021/04/02 10:28:56;;;;;;;10.53;8.40;;;13.70;49.60;;;;;;5053239;28;20688;-87
2021/04/02 10:31:23;;;;;;;8.90;7.80;;;13.90;49.40;;;;;;5058451;28;20713;-86
2021/04/02 10:33:50;;;;;;;9.50;8.32;;;13.90;48.20;;;;;;5052925;28;20763;-87
2021/04/02 10:36:18;;;;;;;11.20;10.00;;;14.00;48.50;;;;;;5057451;28;20188;-86
2021/04/02 10:38:45;;;;;;;11.27;8.27;;;14.10;48.40;;;;;;5027484;28;20633;-87
2021/04/02 10:41:11;;;;;;;11.63;8.63;;;14.30;48.10;;;;;;5027597;28;20607;-87
2021/04/02 10:43:38;;;;;;;11.07;7.87;;;14.50;48.20;;;;;;5042756;28;20623;-87
2021/04/02 10:46:05;;;;;;;9.60;7.70;;;14.70;47.60;;;;;;5041055;28;20619;-87
2021/04/02 10:48:31;;;;;;;9.30;8.30;;;14.90;48.10;;;;;;5030188;28;21044;-87
2021/04/02 10:50:58;;;;;;;8.20;7.40;;;15.10;47.40;;;;;;5028131;28;20782;-88
2021/04/02 10:53:26;;;;;;;8.73;7.83;;;15.10;45.90;;;;;;5027232;28;21273;-87
2021/04/02 10:55:53;;;;;;;10.03;8.87;;;15.00;45.50;;;;;;5045859;28;21076;-88
2021/04/02 10:58:23;;;;;;;9.30;8.10;;;14.50;45.90;;;;;;5029648;28;20623;-87
2021/04/02 11:00:51;;;;;;;9.57;8.57;;;14.40;46.90;;;;;;5057981;28;20614;-89
2021/04/02 11:03:17;;;;;;;13.47;8.30;;;14.50;46.90;;;;;;5046336;28;21107;-87
2021/04/02 11:05:44;;;;;;;9.73;8.07;;;14.50;47.10;;;;;;5057704;28;20638;-85
2021/04/02 11:08:10;;;;;;;9.50;8.33;;;14.30;46.30;;;;;;5038488;28;20615;-87
2021/04/02 11:10:38;;;;;;;10.07;8.37;;;14.40;46.40;;;;;;5041691;28;20626;-87
2021/04/02 11:13:05;;;;;;;8.50;7.63;;;14.00;46.20;;;;;;5048885;28;21237;-85
2021/04/02 11:15:32;;;;;;;9.27;7.67;;;13.60;46.60;;;;;;5051519;28;20729;-88
2021/04/02 11:17:59;;;;;;;8.53;6.93;;;13.50;46.90;;;;;;5033327;28;20634;-86
2021/04/02 11:20:28;;;;;;;10.60;8.47;;;13.30;47.20;;;;;;5040579;28;21321;-86
2021/04/02 11:22:55;;;;;;;10.37;8.33;;;13.50;47.20;;;;;;5053079;28;20626;-86
2021/04/02 11:25:22;;;;;;;9.67;7.67;;;13.70;47.00;;;;;;5056616;28;20606;-86
2021/04/02 11:27:49;;;;;;;10.97;8.47;;;13.70;47.60;;;;;;5058987;28;20613;-86
2021/04/02 11:30:19;;;;;;;8.63;7.73;;;13.70;47.20;;;;;;5064522;28;20989;-86
2021/04/02 11:32:47;;;;;;;8.60;7.67;;;14.30;47.30;;;;;;5054676;28;20653;-87
2021/04/02 11:35:14;;;;;;;8.80;6.90;;;14.80;45.70;;;;;;5050268;28;20626;-87
2021/04/02 11:37:40;;;;;;;9.23;8.20;;;15.30;45.00;;;;;;5038374;28;20627;-86
2021/04/02 11:40:09;;;;;;;8.40;7.50;;;14.70;46.00;;;;;;5035379;28;20607;-86
2021/04/02 11:42:36;;;;;;;7.90;6.27;;;13.80;45.40;;;;;;5054308;28;20606;-87
2021/04/02 11:45:05;;;;;;;7.93;6.33;;;15.20;45.50;;;;;;5057249;28;20678;-87
2021/04/02 11:47:31;;;;;;;7.03;6.33;;;15.50;44.10;;;;;;5054403;28;21175;-86
2021/04/02 11:49:58;;;;;;;6.80;6.20;;;15.40;43.70;;;;;;5057278;28;20626;-87
2021/04/02 11:52:24;;;;;;;11.60;8.93;;;14.20;44.40;;;;;;5057642;28;20606;-86
2021/04/02 11:54:51;;;;;;;8.37;7.53;;;14.00;44.80;;;;;;5056922;28;20656;-86
2021/04/02 11:57:18;;;;;;;7.90;7.20;;;13.50;45.10;;;;;;5056611;28;20608;-87
2021/04/02 11:59:44;;;;;;;6.57;5.43;;;13.70;45.10;;;;;;5057787;28;20646;-86
2021/04/02 12:02:12;;;;;;;6.77;5.83;;;14.10;45.80;;;;;;5052378;28;20625;-86
2021/04/02 12:04:39;;;;;;;6.87;6.17;;;13.70;44.60;;;;;;5054972;28;20639;-86
2021/04/02 12:07:05;;;;;;;7.73;6.57;;;13.30;44.70;;;;;;5053939;28;20647;-86
2021/04/02 12:09:32;;;;;;;7.90;6.67;;;13.60;46.20;;;;;;5050306;28;20668;-86
2021/04/02 12:11:58;;;;;;;7.23;6.43;;;13.80;46.00;;;;;;5041733;28;20679;-86
2021/04/02 12:14:25;;;;;;;7.13;6.43;;;14.10;45.80;;;;;;5045452;28;20662;-85
2021/04/02 12:16:52;;;;;;;10.07;6.53;;;14.20;45.00;;;;;;5050356;28;21053;-88
2021/04/02 12:19:19;;;;;;;6.50;5.80;;;14.10;44.70;;;;;;5050075;28;20661;-88
2021/04/02 12:22:01;;;;;;;6.43;5.80;;;14.20;45.70;;;;;;5051498;28;20992;-86
2021/04/02 12:27:47;;;;;;;6.80;6.20;;;14.00;44.70;;;;;;5063208;28;20963;-88
2021/04/02 12:30:16;;;;;;;5.73;5.23;;;13.80;43.80;;;;;;5046144;28;21131;-89
2021/04/02 12:32:43;;;;;;;6.70;6.07;;;14.10;44.40;;;;;;5048019;28;20599;-88
2021/04/02 12:35:12;;;;;;;7.73;5.70;;;14.40;44.80;;;;;;5054839;28;20637;-87
2021/04/02 12:37:38;;;;;;;6.60;5.97;;;14.70;43.90;;;;;;5036959;28;20650;-87
2021/04/02 12:40:10;;;;;;;7.40;5.97;;;14.20;44.50;;;;;;5030988;28;20626;-87
2021/04/02 12:42:39;;;;;;;6.50;5.87;;;13.80;44.10;;;;;;5048140;28;20979;-87
2021/04/02 12:45:08;;;;;;;6.90;4.87;;;13.90;44.80;;;;;;5063843;28;20645;-88
2021/04/02 12:47:35;;;;;;;6.43;5.70;;;14.30;45.30;;;;;;5053991;28;21178;-88
2021/04/02 12:50:11;;;;;;;7.10;5.97;;;14.60;44.70;;;;;;5042801;28;20646;-88
2021/04/02 12:52:40;;;;;;;5.93;5.10;;;14.90;44.10;;;;;;5044346;28;21657;-87
2021/04/02 12:55:14;;;;;;;8.13;5.20;;;14.70;42.20;;;;;;5033725;28;20630;-88
2021/04/02 12:57:41;;;;;;;6.53;5.43;;;14.80;43.00;;;;;;5049943;28;21068;-88
2021/04/02 13:00:11;;;;;;;5.30;4.80;;;14.70;42.50;;;;;;5049031;28;21195;-87
2021/04/02 13:02:38;;;;;;;6.67;5.97;;;14.40;42.90;;;;;;5043124;28;20654;-87